sensor_id;sensor_type;location;lat;lon;timestamp;P1;durP1;ratioP1;P2;durP2;ratioP2
43803;SDS011;29430;52.924;-2.388;2023-12-14T00:04:25;6.60;;;1.95;;
43803;SDS011;29430;52.924;-2.388;2023-12-14T00:09:17;5.30;;;1.65;;
43803;SDS011;29430;52.924;-2.388;2023-12-14T00:14:09;10.88;;;3.85;;
43803;SDS011;29430;52.924;-2.388;2023-12-14T00:19:01;8.88;;;2.95;;
43803;SDS011;29430;52.924;-2.388;2023-12-14T00:23:54;8.30;;;3.22;;
43803;SDS011;29430;52.924;-2.388;2023-12-14T00:28:46;9.73;;;2.70;;
43803;SDS011;29430;52.924;-2.388;2023-12-14T00:33:37;6.65;;;2.58;;
43803;SDS011;29430;52.924;-2.388;2023-12-14T00:38:29;9.82;;;2.53;;
43803;SDS011;29430;52.924;-2.388;2023-12-14T00:43:21;6.30;;;2.33;;
43803;SDS011;29430;52.924;-2.388;2023-12-14T00:48:13;8.20;;;2.97;;
43803;SDS011;29430;52.924;-2.388;2023-12-14T00:53:05;9.20;;;3.40;;
43803;SDS011;29430;52.924;-2.388;2023-12-14T00:57:57;5.43;;;1.40;;
43803;SDS011;29430;52.924;-2.388;2023-12-14T01:02:49;6.70;;;1.95;;
43803;SDS011;29430;52.924;-2.388;2023-12-14T01:07:40;5.53;;;1.80;;
43803;SDS011;29430;52.924;-2.388;2023-12-14T01:12:32;4.55;;;1.90;;
43803;SDS011;29430;52.924;-2.388;2023-12-14T01:17:24;4.70;;;1.38;;
43803;SDS011;29430;52.924;-2.388;2023-12-14T01:22:16;3.30;;;1.38;;
43803;SDS011;29430;52.924;-2.388;2023-12-14T01:27:08;5.88;;;1.05;;
43803;SDS011;29430;52.924;-2.388;2023-12-14T01:32:02;5.80;;;0.90;;
43803;SDS011;29430;52.924;-2.388;2023-12-14T01:36:53;4.53;;;0.70;;
43803;SDS011;29430;52.924;-2.388;2023-12-14T01:41:45;3.13;;;0.70;;
43803;SDS011;29430;52.924;-2.388;2023-12-14T01:46:37;6.05;;;1.20;;
43803;SDS011;29430;52.924;-2.388;2023-12-14T01:51:29;4.40;;;0.40;;
43803;SDS011;29430;52.924;-2.388;2023-12-14T01:56:20;7.00;;;0.80;;
43803;SDS011;29430;52.924;-2.388;2023-12-14T02:01:21;5.53;;;0.60;;
43803;SDS011;29430;52.924;-2.388;2023-12-14T02:06:20;3.10;;;0.52;;
43803;SDS011;29430;52.924;-2.388;2023-12-14T02:11:12;3.70;;;0.57;;
43803;SDS011;29430;52.924;-2.388;2023-12-14T02:16:04;4.60;;;0.50;;
43803;SDS011;29430;52.924;-2.388;2023-12-14T02:20:56;2.35;;;0.50;;
43803;SDS011;29430;52.924;-2.388;2023-12-14T02:25:47;4.63;;;0.32;;
43803;SDS011;29430;52.924;-2.388;2023-12-14T02:30:39;2.53;;;0.50;;
43803;SDS011;29430;52.924;-2.388;2023-12-14T02:35:31;1.90;;;0.30;;
43803;SDS011;29430;52.924;-2.388;2023-12-14T02:40:22;6.00;;;0.43;;
43803;SDS011;29430;52.924;-2.388;2023-12-14T02:45:14;5.13;;;0.30;;
43803;SDS011;29430;52.924;-2.388;2023-12-14T02:50:06;9.27;;;1.35;;
43803;SDS011;29430;52.924;-2.388;2023-12-14T02:54:58;5.22;;;0.55;;
43803;SDS011;29430;52.924;-2.388;2023-12-14T02:59:50;5.40;;;0.40;;
43803;SDS011;29430;52.924;-2.388;2023-12-14T03:04:41;1.92;;;0.40;;
43803;SDS011;29430;52.924;-2.388;2023-12-14T03:09:33;2.47;;;0.30;;
43803;SDS011;29430;52.924;-2.388;2023-12-14T03:14:25;6.13;;;0.60;;
43803;SDS011;29430;52.924;-2.388;2023-12-14T03:19:17;2.47;;;0.20;;
43803;SDS011;29430;52.924;-2.388;2023-12-14T03:24:09;5.65;;;0.30;;
43803;SDS011;29430;52.924;-2.388;2023-12-14T03:29:01;2.28;;;0.40;;
43803;SDS011;29430;52.924;-2.388;2023-12-14T03:33:53;3.95;;;0.40;;
43803;SDS011;29430;52.924;-2.388;2023-12-14T03:38:45;2.85;;;0.20;;
43803;SDS011;29430;52.924;-2.388;2023-12-14T03:43:36;1.55;;;0.20;;
43803;SDS011;29430;52.924;-2.388;2023-12-14T03:48:28;4.57;;;0.85;;
43803;SDS011;29430;52.924;-2.388;2023-12-14T03:53:20;1.50;;;0.28;;
43803;SDS011;29430;52.924;-2.388;2023-12-14T03:58:12;1.92;;;0.40;;
43803;SDS011;29430;52.924;-2.388;2023-12-14T04:03:04;5.00;;;0.70;;
43803;SDS011;29430;52.924;-2.388;2023-12-14T04:07:55;5.63;;;0.43;;
43803;SDS011;29430;52.924;-2.388;2023-12-14T04:12:47;2.15;;;0.40;;
43803;SDS011;29430;52.924;-2.388;2023-12-14T04:17:39;3.45;;;0.35;;
43803;SDS011;29430;52.924;-2.388;2023-12-14T04:22:31;1.30;;;0.30;;
43803;SDS011;29430;52.924;-2.388;2023-12-14T04:27:23;1.25;;;0.20;;
43803;SDS011;29430;52.924;-2.388;2023-12-14T04:32:20;10.75;;;1.95;;
43803;SDS011;29430;52.924;-2.388;2023-12-14T04:37:13;2.15;;;0.20;;
43803;SDS011;29430;52.924;-2.388;2023-12-14T04:42:13;2.45;;;0.20;;
43803;SDS011;29430;52.924;-2.388;2023-12-14T04:47:05;1.98;;;0.20;;
43803;SDS011;29430;52.924;-2.388;2023-12-14T04:51:57;4.45;;;0.30;;
43803;SDS011;29430;52.924;-2.388;2023-12-14T04:56:49;1.80;;;0.50;;
43803;SDS011;29430;52.924;-2.388;2023-12-14T05:01:40;2.72;;;0.20;;
43803;SDS011;29430;52.924;-2.388;2023-12-14T05:06:35;3.28;;;0.30;;
43803;SDS011;29430;52.924;-2.388;2023-12-14T05:11:27;2.17;;;0.57;;
43803;SDS011;29430;52.924;-2.388;2023-12-14T05:16:19;3.83;;;0.40;;
43803;SDS011;29430;52.924;-2.388;2023-12-14T05:21:15;1.45;;;0.22;;
43803;SDS011;29430;52.924;-2.388;2023-12-14T05:26:08;4.13;;;0.57;;
43803;SDS011;29430;52.924;-2.388;2023-12-14T05:31:00;2.38;;;0.40;;
43803;SDS011;29430;52.924;-2.388;2023-12-14T05:35:52;2.35;;;0.30;;
43803;SDS011;29430;52.924;-2.388;2023-12-14T05:40:44;2.00;;;0.40;;
43803;SDS011;29430;52.924;-2.388;2023-12-14T05:45:35;4.20;;;0.40;;
43803;SDS011;29430;52.924;-2.388;2023-12-14T05:50:27;2.53;;;0.40;;
43803;SDS011;29430;52.924;-2.388;2023-12-14T05:55:19;3.25;;;0.40;;
43803;SDS011;29430;52.924;-2.388;2023-12-14T06:00:13;4.75;;;0.50;;
43803;SDS011;29430;52.924;-2.388;2023-12-14T06:05:06;2.25;;;0.50;;
43803;SDS011;29430;52.924;-2.388;2023-12-14T06:09:58;3.00;;;0.50;;
43803;SDS011;29430;52.924;-2.388;2023-12-14T06:14:50;1.77;;;0.40;;
43803;SDS011;29430;52.924;-2.388;2023-12-14T06:19:42;2.78;;;0.50;;
43803;SDS011;29430;52.924;-2.388;2023-12-14T06:24:34;3.55;;;0.60;;
43803;SDS011;29430;52.924;-2.388;2023-12-14T06:29:25;4.72;;;0.50;;
43803;SDS011;29430;52.924;-2.388;2023-12-14T06:34:17;2.33;;;0.50;;
43803;SDS011;29430;52.924;-2.388;2023-12-14T06:39:09;3.67;;;0.50;;
43803;SDS011;29430;52.924;-2.388;2023-12-14T06:44:02;3.25;;;0.50;;
43803;SDS011;29430;52.924;-2.388;2023-12-14T06:48:54;2.00;;;0.50;;
43803;SDS011;29430;52.924;-2.388;2023-12-14T06:53:46;3.25;;;0.50;;
43803;SDS011;29430;52.924;-2.388;2023-12-14T06:58:39;2.53;;;0.45;;
43803;SDS011;29430;52.924;-2.388;2023-12-14T07:03:31;5.88;;;0.50;;
43803;SDS011;29430;52.924;-2.388;2023-12-14T07:08:23;5.20;;;0.45;;
43803;SDS011;29430;52.924;-2.388;2023-12-14T07:13:15;6.72;;;0.50;;
43803;SDS011;29430;52.924;-2.388;2023-12-14T07:18:07;5.22;;;0.40;;
43803;SDS011;29430;52.924;-2.388;2023-12-14T07:22:59;2.78;;;0.77;;
43803;SDS011;29430;52.924;-2.388;2023-12-14T07:27:51;2.40;;;0.40;;
43803;SDS011;29430;52.924;-2.388;2023-12-14T07:32:43;2.13;;;0.40;;
43803;SDS011;29430;52.924;-2.388;2023-12-14T07:37:35;3.72;;;0.38;;
43803;SDS011;29430;52.924;-2.388;2023-12-14T07:42:27;1.63;;;0.60;;
43803;SDS011;29430;52.924;-2.388;2023-12-14T07:47:19;6.53;;;0.30;;
43803;SDS011;29430;52.924;-2.388;2023-12-14T07:52:11;1.20;;;0.40;;
43803;SDS011;29430;52.924;-2.388;2023-12-14T07:57:07;1.75;;;0.30;;
43803;SDS011;29430;52.924;-2.388;2023-12-14T08:01:59;2.65;;;0.43;;
43803;SDS011;29430;52.924;-2.388;2023-12-14T08:06:51;3.35;;;0.38;;
43803;SDS011;29430;52.924;-2.388;2023-12-14T08:11:42;2.47;;;0.32;;
43803;SDS011;29430;52.924;-2.388;2023-12-14T08:16:34;2.55;;;0.70;;
43803;SDS011;29430;52.924;-2.388;2023-12-14T08:21:26;3.70;;;0.47;;
43803;SDS011;29430;52.924;-2.388;2023-12-14T08:26:17;3.03;;;0.50;;
43803;SDS011;29430;52.924;-2.388;2023-12-14T08:31:09;4.15;;;0.52;;
43803;SDS011;29430;52.924;-2.388;2023-12-14T08:36:03;3.72;;;0.40;;
43803;SDS011;29430;52.924;-2.388;2023-12-14T08:40:57;3.05;;;0.30;;
43803;SDS011;29430;52.924;-2.388;2023-12-14T08:45:48;2.67;;;0.43;;
43803;SDS011;29430;52.924;-2.388;2023-12-14T08:50:40;2.83;;;0.40;;
43803;SDS011;29430;52.924;-2.388;2023-12-14T08:55:32;1.30;;;0.30;;
43803;SDS011;29430;52.924;-2.388;2023-12-14T09:00:24;2.88;;;0.28;;
43803;SDS011;29430;52.924;-2.388;2023-12-14T09:05:15;3.00;;;0.55;;
43803;SDS011;29430;52.924;-2.388;2023-12-14T09:10:08;3.63;;;0.40;;
43803;SDS011;29430;52.924;-2.388;2023-12-14T09:15:03;7.18;;;0.40;;
43803;SDS011;29430;52.924;-2.388;2023-12-14T09:19:55;3.65;;;0.40;;
43803;SDS011;29430;52.924;-2.388;2023-12-14T09:24:47;4.03;;;0.40;;
43803;SDS011;29430;52.924;-2.388;2023-12-14T09:29:38;3.58;;;0.40;;
43803;SDS011;29430;52.924;-2.388;2023-12-14T09:34:30;1.50;;;0.40;;
43803;SDS011;29430;52.924;-2.388;2023-12-14T09:39:22;1.80;;;0.40;;
43803;SDS011;29430;52.924;-2.388;2023-12-14T09:44:14;3.20;;;0.40;;
43803;SDS011;29430;52.924;-2.388;2023-12-14T09:49:06;8.68;;;0.82;;
43803;SDS011;29430;52.924;-2.388;2023-12-14T09:54:00;2.53;;;0.40;;
43803;SDS011;29430;52.924;-2.388;2023-12-14T09:58:53;3.00;;;0.40;;
43803;SDS011;29430;52.924;-2.388;2023-12-14T10:03:45;1.63;;;0.50;;
43803;SDS011;29430;52.924;-2.388;2023-12-14T10:08:36;1.70;;;0.40;;
43803;SDS011;29430;52.924;-2.388;2023-12-14T10:13:38;4.32;;;0.40;;
43803;SDS011;29430;52.924;-2.388;2023-12-14T10:18:31;2.42;;;0.40;;
43803;SDS011;29430;52.924;-2.388;2023-12-14T10:23:27;2.17;;;0.50;;
43803;SDS011;29430;52.924;-2.388;2023-12-14T10:28:19;4.07;;;0.43;;
43803;SDS011;29430;52.924;-2.388;2023-12-14T10:33:10;3.13;;;0.57;;
43803;SDS011;29430;52.924;-2.388;2023-12-14T10:38:04;1.42;;;0.30;;
43803;SDS011;29430;52.924;-2.388;2023-12-14T10:42:58;2.92;;;0.50;;
43803;SDS011;29430;52.924;-2.388;2023-12-14T10:47:52;2.67;;;0.40;;
43803;SDS011;29430;52.924;-2.388;2023-12-14T10:52:45;2.28;;;0.40;;
43803;SDS011;29430;52.924;-2.388;2023-12-14T10:57:37;1.75;;;0.35;;
43803;SDS011;29430;52.924;-2.388;2023-12-14T11:02:40;3.33;;;0.50;;
43803;SDS011;29430;52.924;-2.388;2023-12-14T11:07:46;3.35;;;0.40;;
43803;SDS011;29430;52.924;-2.388;2023-12-14T11:12:42;1.38;;;0.35;;
43803;SDS011;29430;52.924;-2.388;2023-12-14T11:18:32;1.98;;;0.32;;
43803;SDS011;29430;52.924;-2.388;2023-12-14T11:23:07;0.90;;;0.38;;
43803;SDS011;29430;52.924;-2.388;2023-12-14T11:28:03;1.15;;;0.40;;
43803;SDS011;29430;52.924;-2.388;2023-12-14T11:32:55;1.17;;;0.30;;
43803;SDS011;29430;52.924;-2.388;2023-12-14T11:37:46;2.45;;;0.40;;
43803;SDS011;29430;52.924;-2.388;2023-12-14T11:42:38;1.60;;;0.40;;
43803;SDS011;29430;52.924;-2.388;2023-12-14T11:47:30;0.88;;;0.28;;
43803;SDS011;29430;52.924;-2.388;2023-12-14T11:52:22;1.15;;;0.20;;
43803;SDS011;29430;52.924;-2.388;2023-12-14T11:57:13;3.20;;;0.30;;
43803;SDS011;29430;52.924;-2.388;2023-12-14T12:02:08;1.90;;;0.40;;
43803;SDS011;29430;52.924;-2.388;2023-12-14T12:11:53;2.47;;;0.50;;
43803;SDS011;29430;52.924;-2.388;2023-12-14T12:16:45;3.35;;;0.40;;
43803;SDS011;29430;52.924;-2.388;2023-12-14T12:21:37;0.93;;;0.30;;
43803;SDS011;29430;52.924;-2.388;2023-12-14T12:26:29;2.28;;;0.50;;
43803;SDS011;29430;52.924;-2.388;2023-12-14T12:31:21;2.53;;;0.60;;
43803;SDS011;29430;52.924;-2.388;2023-12-14T12:36:13;1.30;;;0.40;;
43803;SDS011;29430;52.924;-2.388;2023-12-14T12:41:04;3.97;;;0.43;;
43803;SDS011;29430;52.924;-2.388;2023-12-14T12:45:56;4.68;;;0.50;;
43803;SDS011;29430;52.924;-2.388;2023-12-14T12:50:50;7.00;;;0.60;;
43803;SDS011;29430;52.924;-2.388;2023-12-14T12:55:41;3.40;;;0.40;;
43803;SDS011;29430;52.924;-2.388;2023-12-14T13:00:33;8.35;;;0.50;;
43803;SDS011;29430;52.924;-2.388;2023-12-14T13:05:27;8.45;;;0.52;;
43803;SDS011;29430;52.924;-2.388;2023-12-14T13:10:18;6.30;;;0.50;;
43803;SDS011;29430;52.924;-2.388;2023-12-14T13:15:22;7.18;;;0.82;;
43803;SDS011;29430;52.924;-2.388;2023-12-14T13:20:18;14.82;;;1.27;;
43803;SDS011;29430;52.924;-2.388;2023-12-14T13:25:11;16.65;;;1.08;;
43803;SDS011;29430;52.924;-2.388;2023-12-14T13:30:03;14.25;;;1.23;;
43803;SDS011;29430;52.924;-2.388;2023-12-14T13:34:55;12.90;;;0.85;;
43803;SDS011;29430;52.924;-2.388;2023-12-14T13:39:47;10.73;;;0.70;;
43803;SDS011;29430;52.924;-2.388;2023-12-14T13:44:40;16.20;;;1.20;;
43803;SDS011;29430;52.924;-2.388;2023-12-14T13:49:33;13.65;;;0.90;;
43803;SDS011;29430;52.924;-2.388;2023-12-14T13:54:25;13.73;;;1.05;;
43803;SDS011;29430;52.924;-2.388;2023-12-14T13:59:17;14.20;;;1.05;;
43803;SDS011;29430;52.924;-2.388;2023-12-14T14:04:09;14.25;;;1.30;;
43803;SDS011;29430;52.924;-2.388;2023-12-14T14:09:00;18.73;;;1.10;;
43803;SDS011;29430;52.924;-2.388;2023-12-14T14:13:52;16.08;;;1.25;;
43803;SDS011;29430;52.924;-2.388;2023-12-14T14:18:44;11.18;;;1.27;;
43803;SDS011;29430;52.924;-2.388;2023-12-14T14:23:37;12.93;;;1.00;;
43803;SDS011;29430;52.924;-2.388;2023-12-14T14:28:31;14.63;;;1.20;;
43803;SDS011;29430;52.924;-2.388;2023-12-14T14:33:22;13.98;;;1.25;;
43803;SDS011;29430;52.924;-2.388;2023-12-14T14:38:16;14.95;;;1.20;;
43803;SDS011;29430;52.924;-2.388;2023-12-14T14:43:09;16.00;;;1.52;;
43803;SDS011;29430;52.924;-2.388;2023-12-14T14:48:01;14.25;;;1.90;;
43803;SDS011;29430;52.924;-2.388;2023-12-14T14:52:53;18.67;;;1.58;;
43803;SDS011;29430;52.924;-2.388;2023-12-14T14:57:44;19.50;;;2.78;;
43803;SDS011;29430;52.924;-2.388;2023-12-14T15:02:36;11.60;;;2.42;;
43803;SDS011;29430;52.924;-2.388;2023-12-14T15:07:28;17.23;;;1.77;;
43803;SDS011;29430;52.924;-2.388;2023-12-14T15:12:21;17.05;;;2.58;;
43803;SDS011;29430;52.924;-2.388;2023-12-14T15:17:13;16.58;;;2.47;;
43803;SDS011;29430;52.924;-2.388;2023-12-14T15:22:05;14.55;;;1.50;;
43803;SDS011;29430;52.924;-2.388;2023-12-14T15:26:57;17.80;;;2.88;;
43803;SDS011;29430;52.924;-2.388;2023-12-14T15:31:49;15.80;;;2.28;;
43803;SDS011;29430;52.924;-2.388;2023-12-14T15:36:44;17.67;;;2.40;;
43803;SDS011;29430;52.924;-2.388;2023-12-14T15:41:35;15.68;;;1.80;;
43803;SDS011;29430;52.924;-2.388;2023-12-14T15:46:27;26.13;;;3.17;;
43803;SDS011;29430;52.924;-2.388;2023-12-14T15:51:20;25.10;;;1.98;;
43803;SDS011;29430;52.924;-2.388;2023-12-14T15:56:12;14.38;;;1.58;;
43803;SDS011;29430;52.924;-2.388;2023-12-14T16:01:04;18.85;;;2.47;;
43803;SDS011;29430;52.924;-2.388;2023-12-14T16:05:55;21.65;;;2.00;;
43803;SDS011;29430;52.924;-2.388;2023-12-14T16:10:47;13.25;;;1.20;;
43803;SDS011;29430;52.924;-2.388;2023-12-14T16:15:42;12.50;;;1.23;;
43803;SDS011;29430;52.924;-2.388;2023-12-14T16:20:34;16.08;;;1.27;;
43803;SDS011;29430;52.924;-2.388;2023-12-14T16:25:26;11.80;;;0.90;;
43803;SDS011;29430;52.924;-2.388;2023-12-14T16:30:17;9.48;;;1.25;;
43803;SDS011;29430;52.924;-2.388;2023-12-14T16:35:09;20.77;;;1.13;;
43803;SDS011;29430;52.924;-2.388;2023-12-14T16:40:02;13.27;;;1.10;;
43803;SDS011;29430;52.924;-2.388;2023-12-14T16:44:53;16.40;;;2.00;;
43803;SDS011;29430;52.924;-2.388;2023-12-14T16:49:45;16.80;;;2.25;;
43803;SDS011;29430;52.924;-2.388;2023-12-14T16:54:38;17.73;;;1.58;;
43803;SDS011;29430;52.924;-2.388;2023-12-14T16:59:30;14.10;;;1.58;;
43803;SDS011;29430;52.924;-2.388;2023-12-14T17:04:22;11.93;;;1.10;;
43803;SDS011;29430;52.924;-2.388;2023-12-14T17:09:14;20.63;;;1.48;;
43803;SDS011;29430;52.924;-2.388;2023-12-14T17:14:06;14.35;;;1.73;;
43803;SDS011;29430;52.924;-2.388;2023-12-14T17:18:58;11.50;;;1.75;;
43803;SDS011;29430;52.924;-2.388;2023-12-14T17:23:50;16.25;;;2.72;;
43803;SDS011;29430;52.924;-2.388;2023-12-14T17:28:43;20.83;;;3.65;;
43803;SDS011;29430;52.924;-2.388;2023-12-14T17:33:36;11.00;;;2.20;;
43803;SDS011;29430;52.924;-2.388;2023-12-14T17:38:28;12.98;;;1.88;;
43803;SDS011;29430;52.924;-2.388;2023-12-14T17:43:19;16.23;;;1.90;;
43803;SDS011;29430;52.924;-2.388;2023-12-14T17:48:11;13.50;;;2.05;;
43803;SDS011;29430;52.924;-2.388;2023-12-14T17:53:03;9.57;;;1.35;;
43803;SDS011;29430;52.924;-2.388;2023-12-14T17:57:54;12.77;;;1.45;;
43803;SDS011;29430;52.924;-2.388;2023-12-14T18:02:46;9.23;;;1.08;;
43803;SDS011;29430;52.924;-2.388;2023-12-14T18:07:38;16.60;;;1.88;;
43803;SDS011;29430;52.924;-2.388;2023-12-14T18:12:30;12.90;;;1.70;;
43803;SDS011;29430;52.924;-2.388;2023-12-14T18:17:21;6.70;;;0.90;;
43803;SDS011;29430;52.924;-2.388;2023-12-14T18:22:14;13.90;;;1.45;;
43803;SDS011;29430;52.924;-2.388;2023-12-14T18:27:06;11.18;;;1.50;;
43803;SDS011;29430;52.924;-2.388;2023-12-14T18:31:57;8.32;;;0.80;;
43803;SDS011;29430;52.924;-2.388;2023-12-14T18:36:49;11.77;;;1.20;;
43803;SDS011;29430;52.924;-2.388;2023-12-14T18:41:41;12.15;;;1.02;;
43803;SDS011;29430;52.924;-2.388;2023-12-14T18:46:33;8.38;;;0.80;;
43803;SDS011;29430;52.924;-2.388;2023-12-14T18:51:25;9.02;;;1.45;;
43803;SDS011;29430;52.924;-2.388;2023-12-14T18:56:16;6.35;;;0.68;;
43803;SDS011;29430;52.924;-2.388;2023-12-14T19:01:08;3.50;;;0.90;;
43803;SDS011;29430;52.924;-2.388;2023-12-14T19:06:05;13.93;;;1.48;;
43803;SDS011;29430;52.924;-2.388;2023-12-14T19:11:01;7.65;;;0.70;;
43803;SDS011;29430;52.924;-2.388;2023-12-14T19:15:52;5.82;;;0.57;;
43803;SDS011;29430;52.924;-2.388;2023-12-14T19:20:44;6.70;;;1.05;;
43803;SDS011;29430;52.924;-2.388;2023-12-14T19:25:36;5.10;;;1.05;;
43803;SDS011;29430;52.924;-2.388;2023-12-14T19:30:28;8.40;;;1.70;;
43803;SDS011;29430;52.924;-2.388;2023-12-14T19:35:19;10.65;;;1.70;;
43803;SDS011;29430;52.924;-2.388;2023-12-14T19:40:12;10.02;;;1.10;;
43803;SDS011;29430;52.924;-2.388;2023-12-14T19:45:05;8.82;;;1.15;;
43803;SDS011;29430;52.924;-2.388;2023-12-14T19:49:57;6.28;;;1.15;;
43803;SDS011;29430;52.924;-2.388;2023-12-14T19:54:51;8.32;;;0.80;;
43803;SDS011;29430;52.924;-2.388;2023-12-14T19:59:43;12.68;;;1.27;;
43803;SDS011;29430;52.924;-2.388;2023-12-14T20:04:37;8.55;;;1.20;;
43803;SDS011;29430;52.924;-2.388;2023-12-14T20:09:29;6.43;;;1.08;;
43803;SDS011;29430;52.924;-2.388;2023-12-14T20:14:21;5.18;;;0.70;;
43803;SDS011;29430;52.924;-2.388;2023-12-14T20:19:13;11.50;;;1.77;;
43803;SDS011;29430;52.924;-2.388;2023-12-14T20:24:05;10.05;;;1.50;;
43803;SDS011;29430;52.924;-2.388;2023-12-14T20:28:58;10.00;;;0.90;;
43803;SDS011;29430;52.924;-2.388;2023-12-14T20:33:50;12.38;;;1.52;;
43803;SDS011;29430;52.924;-2.388;2023-12-14T20:38:43;5.40;;;1.00;;
43803;SDS011;29430;52.924;-2.388;2023-12-14T20:43:35;4.45;;;0.65;;
43803;SDS011;29430;52.924;-2.388;2023-12-14T20:48:29;11.98;;;1.58;;
43803;SDS011;29430;52.924;-2.388;2023-12-14T20:53:22;11.07;;;1.67;;
43803;SDS011;29430;52.924;-2.388;2023-12-14T20:58:14;10.77;;;0.98;;
43803;SDS011;29430;52.924;-2.388;2023-12-14T21:03:06;11.70;;;1.75;;
43803;SDS011;29430;52.924;-2.388;2023-12-14T21:07:57;7.57;;;1.88;;
43803;SDS011;29430;52.924;-2.388;2023-12-14T21:12:49;7.93;;;1.40;;
43803;SDS011;29430;52.924;-2.388;2023-12-14T21:17:41;7.63;;;0.93;;
43803;SDS011;29430;52.924;-2.388;2023-12-14T21:22:33;13.60;;;1.30;;
43803;SDS011;29430;52.924;-2.388;2023-12-14T21:27:25;7.35;;;1.17;;
43803;SDS011;29430;52.924;-2.388;2023-12-14T21:32:36;7.28;;;0.70;;
43803;SDS011;29430;52.924;-2.388;2023-12-14T21:37:27;10.07;;;1.05;;
43803;SDS011;29430;52.924;-2.388;2023-12-14T21:42:19;15.30;;;1.30;;
43803;SDS011;29430;52.924;-2.388;2023-12-14T21:47:11;7.47;;;1.30;;
43803;SDS011;29430;52.924;-2.388;2023-12-14T21:52:03;9.25;;;0.95;;
43803;SDS011;29430;52.924;-2.388;2023-12-14T21:56:55;6.22;;;0.80;;
43803;SDS011;29430;52.924;-2.388;2023-12-14T22:01:46;8.65;;;0.93;;
43803;SDS011;29430;52.924;-2.388;2023-12-14T22:06:38;7.40;;;0.93;;
43803;SDS011;29430;52.924;-2.388;2023-12-14T22:11:30;12.60;;;1.80;;
43803;SDS011;29430;52.924;-2.388;2023-12-14T22:16:22;7.03;;;0.70;;
43803;SDS011;29430;52.924;-2.388;2023-12-14T22:21:13;10.15;;;0.70;;
43803;SDS011;29430;52.924;-2.388;2023-12-14T22:26:05;4.63;;;0.40;;
43803;SDS011;29430;52.924;-2.388;2023-12-14T22:30:57;10.70;;;0.50;;
43803;SDS011;29430;52.924;-2.388;2023-12-14T22:35:48;7.47;;;0.68;;
43803;SDS011;29430;52.924;-2.388;2023-12-14T22:40:41;10.68;;;1.40;;
43803;SDS011;29430;52.924;-2.388;2023-12-14T22:45:33;7.10;;;0.70;;
43803;SDS011;29430;52.924;-2.388;2023-12-14T22:50:25;4.93;;;0.40;;
43803;SDS011;29430;52.924;-2.388;2023-12-14T22:55:16;7.30;;;0.90;;
43803;SDS011;29430;52.924;-2.388;2023-12-14T23:00:08;9.82;;;0.57;;
43803;SDS011;29430;52.924;-2.388;2023-12-14T23:05:03;7.78;;;0.70;;
43803;SDS011;29430;52.924;-2.388;2023-12-14T23:09:55;6.40;;;0.50;;
43803;SDS011;29430;52.924;-2.388;2023-12-14T23:14:47;5.38;;;0.60;;
43803;SDS011;29430;52.924;-2.388;2023-12-14T23:19:39;12.07;;;0.75;;
43803;SDS011;29430;52.924;-2.388;2023-12-14T23:24:31;7.40;;;0.50;;
43803;SDS011;29430;52.924;-2.388;2023-12-14T23:29:22;7.70;;;0.50;;
43803;SDS011;29430;52.924;-2.388;2023-12-14T23:34:14;12.68;;;1.05;;
43803;SDS011;29430;52.924;-2.388;2023-12-14T23:39:06;7.57;;;0.60;;
43803;SDS011;29430;52.924;-2.388;2023-12-14T23:43:58;6.25;;;0.50;;
43803;SDS011;29430;52.924;-2.388;2023-12-14T23:48:50;4.00;;;0.43;;
43803;SDS011;29430;52.924;-2.388;2023-12-14T23:53:44;7.43;;;0.70;;
43803;SDS011;29430;52.924;-2.388;2023-12-14T23:58:36;7.45;;;0.57;;
